Peaster, Texas
Current Conditions -  °F | °C
As of 4:35 PM on Monday 24 Nov 2014 (Local Time) from KXBP Reporting Station
Clear Clear  
Wind Chill: 59°   Ceiling: Unl
Heat Index: 59°   Visibility: 10mi
Dew Point: 27°   Wind: 6mph
Humidity: 29%   Direction: 290°WNW
Pressure: 30.07"   Gusts: NA
Location:  32.87°N, 97.87°W
Report Text: KXBP 242235Z AUTO 29005KT 10SM CLR 15/M03 A3007 RMK AO2 T01521027
Loading
Personal Weather Stations






























Interactive Weather Map New forecast layout! Learn more

10-Day Weather Forecast

Advertisements
Track Severe Weather on mobile